sensor_id;sensor_type;location;lat;lon;timestamp;P1;durP1;ratioP1;P2;durP2;ratioP2
76978;SDS011;65911;47.502;19.148;2023-08-08T00:02:28;0.22;;;0.22;;
76978;SDS011;65911;47.502;19.148;2023-08-08T00:05:30;0.55;;;0.30;;
76978;SDS011;65911;47.502;19.148;2023-08-08T00:08:32;0.85;;;0.47;;
76978;SDS011;65911;47.502;19.148;2023-08-08T00:11:34;1.23;;;0.50;;
76978;SDS011;65911;47.502;19.148;2023-08-08T00:14:36;0.93;;;0.50;;
76978;SDS011;65911;47.502;19.148;2023-08-08T00:17:39;0.38;;;0.10;;
76978;SDS011;65911;47.502;19.148;2023-08-08T00:20:41;0.63;;;0.20;;
76978;SDS011;65911;47.502;19.148;2023-08-08T00:23:43;0.30;;;0.30;;
76978;SDS011;65911;47.502;19.148;2023-08-08T00:26:46;0.40;;;0.22;;
76978;SDS011;65911;47.502;19.148;2023-08-08T00:29:48;0.45;;;0.45;;
76978;SDS011;65911;47.502;19.148;2023-08-08T00:32:52;1.02;;;0.40;;
76978;SDS011;65911;47.502;19.148;2023-08-08T00:35:57;0.55;;;0.32;;
76978;SDS011;65911;47.502;19.148;2023-08-08T00:39:01;0.70;;;0.35;;
76978;SDS011;65911;47.502;19.148;2023-08-08T00:42:03;0.40;;;0.40;;
76978;SDS011;65911;47.502;19.148;2023-08-08T00:45:06;0.47;;;0.47;;
76978;SDS011;65911;47.502;19.148;2023-08-08T00:48:08;0.30;;;0.22;;
76978;SDS011;65911;47.502;19.148;2023-08-08T00:51:11;2.27;;;0.50;;
76978;SDS011;65911;47.502;19.148;2023-08-08T00:54:13;0.50;;;0.30;;
76978;SDS011;65911;47.502;19.148;2023-08-08T00:57:16;0.32;;;0.22;;
76978;SDS011;65911;47.502;19.148;2023-08-08T01:00:18;1.30;;;0.40;;
76978;SDS011;65911;47.502;19.148;2023-08-08T01:03:21;0.63;;;0.30;;
76978;SDS011;65911;47.502;19.148;2023-08-08T01:06:43;1.15;;;0.47;;
76978;SDS011;65911;47.502;19.148;2023-08-08T01:13:18;0.60;;;0.43;;
76978;SDS011;65911;47.502;19.148;2023-08-08T01:16:22;0.20;;;0.20;;
76978;SDS011;65911;47.502;19.148;2023-08-08T01:19:29;0.50;;;0.40;;
76978;SDS011;65911;47.502;19.148;2023-08-08T01:22:35;0.40;;;0.40;;
76978;SDS011;65911;47.502;19.148;2023-08-08T01:25:40;1.55;;;0.30;;
76978;SDS011;65911;47.502;19.148;2023-08-08T01:28:42;0.43;;;0.25;;
76978;SDS011;65911;47.502;19.148;2023-08-08T01:31:45;0.57;;;0.55;;
76978;SDS011;65911;47.502;19.148;2023-08-08T01:34:48;0.98;;;0.30;;
76978;SDS011;65911;47.502;19.148;2023-08-08T01:37:52;0.57;;;0.40;;
76978;SDS011;65911;47.502;19.148;2023-08-08T01:40:58;0.88;;;0.30;;
76978;SDS011;65911;47.502;19.148;2023-08-08T01:44:01;0.30;;;0.30;;
76978;SDS011;65911;47.502;19.148;2023-08-08T01:47:05;0.35;;;0.35;;
76978;SDS011;65911;47.502;19.148;2023-08-08T01:50:07;0.40;;;0.40;;
76978;SDS011;65911;47.502;19.148;2023-08-08T01:53:10;0.77;;;0.20;;
76978;SDS011;65911;47.502;19.148;2023-08-08T01:56:13;0.60;;;0.30;;
76978;SDS011;65911;47.502;19.148;2023-08-08T01:59:15;1.92;;;0.70;;
76978;SDS011;65911;47.502;19.148;2023-08-08T02:02:18;1.00;;;0.30;;
76978;SDS011;65911;47.502;19.148;2023-08-08T02:05:20;0.73;;;0.57;;
76978;SDS011;65911;47.502;19.148;2023-08-08T02:08:22;0.82;;;0.43;;
76978;SDS011;65911;47.502;19.148;2023-08-08T02:11:25;2.25;;;0.40;;
76978;SDS011;65911;47.502;19.148;2023-08-08T02:14:28;0.40;;;0.33;;
76978;SDS011;65911;47.502;19.148;2023-08-08T02:17:30;0.55;;;0.50;;
76978;SDS011;65911;47.502;19.148;2023-08-08T02:20:32;0.63;;;0.30;;
76978;SDS011;65911;47.502;19.148;2023-08-08T02:23:34;0.80;;;0.60;;
76978;SDS011;65911;47.502;19.148;2023-08-08T02:26:37;0.50;;;0.35;;
76978;SDS011;65911;47.502;19.148;2023-08-08T02:29:42;3.67;;;0.50;;
76978;SDS011;65911;47.502;19.148;2023-08-08T02:32:45;0.70;;;0.45;;
76978;SDS011;65911;47.502;19.148;2023-08-08T02:35:47;2.67;;;1.25;;
76978;SDS011;65911;47.502;19.148;2023-08-08T02:38:49;1.80;;;0.57;;
76978;SDS011;65911;47.502;19.148;2023-08-08T02:41:55;1.77;;;0.50;;
76978;SDS011;65911;47.502;19.148;2023-08-08T02:44:59;0.83;;;0.40;;
76978;SDS011;65911;47.502;19.148;2023-08-08T02:48:01;0.77;;;0.60;;
76978;SDS011;65911;47.502;19.148;2023-08-08T02:51:04;1.33;;;0.43;;
76978;SDS011;65911;47.502;19.148;2023-08-08T02:54:06;2.27;;;0.57;;
76978;SDS011;65911;47.502;19.148;2023-08-08T02:57:10;1.20;;;0.55;;
76978;SDS011;65911;47.502;19.148;2023-08-08T03:00:15;2.13;;;0.68;;
76978;SDS011;65911;47.502;19.148;2023-08-08T03:03:20;1.02;;;0.50;;
76978;SDS011;65911;47.502;19.148;2023-08-08T03:06:22;0.45;;;0.45;;
76978;SDS011;65911;47.502;19.148;2023-08-08T03:09:26;1.25;;;0.57;;
76978;SDS011;65911;47.502;19.148;2023-08-08T03:12:28;0.60;;;0.40;;
76978;SDS011;65911;47.502;19.148;2023-08-08T03:15:31;0.93;;;0.47;;
76978;SDS011;65911;47.502;19.148;2023-08-08T03:18:34;0.55;;;0.50;;
76978;SDS011;65911;47.502;19.148;2023-08-08T03:21:36;1.27;;;0.60;;
76978;SDS011;65911;47.502;19.148;2023-08-08T03:24:38;0.70;;;0.57;;
76978;SDS011;65911;47.502;19.148;2023-08-08T03:27:42;0.73;;;0.60;;
76978;SDS011;65911;47.502;19.148;2023-08-08T03:30:47;2.22;;;0.70;;
76978;SDS011;65911;47.502;19.148;2023-08-08T03:33:50;1.88;;;0.70;;
76978;SDS011;65911;47.502;19.148;2023-08-08T03:36:52;2.08;;;0.70;;
76978;SDS011;65911;47.502;19.148;2023-08-08T03:39:55;0.68;;;0.68;;
76978;SDS011;65911;47.502;19.148;2023-08-08T03:42:57;0.50;;;0.40;;
76978;SDS011;65911;47.502;19.148;2023-08-08T03:46:00;3.33;;;0.60;;
76978;SDS011;65911;47.502;19.148;2023-08-08T03:49:04;0.88;;;0.52;;
76978;SDS011;65911;47.502;19.148;2023-08-08T03:52:06;0.93;;;0.65;;
76978;SDS011;65911;47.502;19.148;2023-08-08T03:55:08;3.50;;;0.60;;
76978;SDS011;65911;47.502;19.148;2023-08-08T03:58:12;0.88;;;0.65;;
76978;SDS011;65911;47.502;19.148;2023-08-08T04:01:14;1.85;;;1.00;;
76978;SDS011;65911;47.502;19.148;2023-08-08T04:04:16;1.00;;;0.50;;
76978;SDS011;65911;47.502;19.148;2023-08-08T04:07:19;1.13;;;0.90;;
76978;SDS011;65911;47.502;19.148;2023-08-08T04:10:23;1.25;;;1.05;;
76978;SDS011;65911;47.502;19.148;2023-08-08T04:13:25;1.02;;;0.65;;
76978;SDS011;65911;47.502;19.148;2023-08-08T04:16:27;1.10;;;0.80;;
76978;SDS011;65911;47.502;19.148;2023-08-08T04:19:30;1.85;;;0.93;;
76978;SDS011;65911;47.502;19.148;2023-08-08T04:22:32;1.42;;;0.68;;
76978;SDS011;65911;47.502;19.148;2023-08-08T04:25:34;1.13;;;0.93;;
76978;SDS011;65911;47.502;19.148;2023-08-08T04:28:36;1.65;;;0.57;;
76978;SDS011;65911;47.502;19.148;2023-08-08T04:31:39;1.10;;;0.65;;
76978;SDS011;65911;47.502;19.148;2023-08-08T04:34:41;2.15;;;0.60;;
76978;SDS011;65911;47.502;19.148;2023-08-08T04:37:43;0.90;;;0.80;;
76978;SDS011;65911;47.502;19.148;2023-08-08T04:40:45;0.90;;;0.68;;
76978;SDS011;65911;47.502;19.148;2023-08-08T04:43:48;2.55;;;0.73;;
76978;SDS011;65911;47.502;19.148;2023-08-08T04:46:50;1.40;;;0.40;;
76978;SDS011;65911;47.502;19.148;2023-08-08T04:49:52;2.22;;;0.57;;
76978;SDS011;65911;47.502;19.148;2023-08-08T04:52:54;1.50;;;0.40;;
76978;SDS011;65911;47.502;19.148;2023-08-08T04:55:57;1.63;;;0.60;;
76978;SDS011;65911;47.502;19.148;2023-08-08T04:58:59;1.45;;;0.55;;
76978;SDS011;65911;47.502;19.148;2023-08-08T05:02:01;1.30;;;0.68;;
76978;SDS011;65911;47.502;19.148;2023-08-08T05:05:04;0.63;;;0.30;;
76978;SDS011;65911;47.502;19.148;2023-08-08T05:08:06;1.33;;;0.65;;
76978;SDS011;65911;47.502;19.148;2023-08-08T05:11:09;0.88;;;0.65;;
76978;SDS011;65911;47.502;19.148;2023-08-08T05:14:11;0.90;;;0.60;;
76978;SDS011;65911;47.502;19.148;2023-08-08T05:17:13;1.70;;;0.67;;
76978;SDS011;65911;47.502;19.148;2023-08-08T05:20:15;1.85;;;0.70;;
76978;SDS011;65911;47.502;19.148;2023-08-08T05:23:18;1.48;;;0.35;;
76978;SDS011;65911;47.502;19.148;2023-08-08T05:26:20;0.60;;;0.30;;
76978;SDS011;65911;47.502;19.148;2023-08-08T05:29:22;2.67;;;0.45;;
76978;SDS011;65911;47.502;19.148;2023-08-08T05:32:25;1.38;;;0.70;;
76978;SDS011;65911;47.502;19.148;2023-08-08T05:35:27;4.55;;;0.80;;
76978;SDS011;65911;47.502;19.148;2023-08-08T05:38:29;1.65;;;0.82;;
76978;SDS011;65911;47.502;19.148;2023-08-08T05:41:31;1.98;;;0.75;;
76978;SDS011;65911;47.502;19.148;2023-08-08T05:44:33;2.15;;;0.95;;
76978;SDS011;65911;47.502;19.148;2023-08-08T05:47:36;1.53;;;0.40;;
76978;SDS011;65911;47.502;19.148;2023-08-08T05:50:38;1.25;;;0.73;;
76978;SDS011;65911;47.502;19.148;2023-08-08T05:53:41;3.08;;;0.90;;
76978;SDS011;65911;47.502;19.148;2023-08-08T05:56:44;1.03;;;0.80;;
76978;SDS011;65911;47.502;19.148;2023-08-08T05:59:46;4.20;;;1.15;;
76978;SDS011;65911;47.502;19.148;2023-08-08T06:02:48;2.45;;;0.68;;
76978;SDS011;65911;47.502;19.148;2023-08-08T06:05:50;1.90;;;0.55;;
76978;SDS011;65911;47.502;19.148;2023-08-08T06:08:53;2.20;;;1.17;;
76978;SDS011;65911;47.502;19.148;2023-08-08T06:11:55;0.98;;;0.73;;
76978;SDS011;65911;47.502;19.148;2023-08-08T06:14:57;2.05;;;0.50;;
76978;SDS011;65911;47.502;19.148;2023-08-08T06:17:59;1.23;;;0.47;;
76978;SDS011;65911;47.502;19.148;2023-08-08T06:21:02;1.40;;;0.68;;
76978;SDS011;65911;47.502;19.148;2023-08-08T06:24:04;1.35;;;0.90;;
76978;SDS011;65911;47.502;19.148;2023-08-08T06:27:06;1.63;;;0.80;;
76978;SDS011;65911;47.502;19.148;2023-08-08T06:30:09;0.90;;;0.47;;
76978;SDS011;65911;47.502;19.148;2023-08-08T06:33:25;1.30;;;0.77;;
76978;SDS011;65911;47.502;19.148;2023-08-08T06:36:27;1.20;;;0.65;;
76978;SDS011;65911;47.502;19.148;2023-08-08T06:39:30;1.80;;;0.73;;
76978;SDS011;65911;47.502;19.148;2023-08-08T06:42:33;1.25;;;0.43;;
76978;SDS011;65911;47.502;19.148;2023-08-08T06:45:36;2.88;;;0.60;;
76978;SDS011;65911;47.502;19.148;2023-08-08T06:48:38;1.53;;;0.70;;
76978;SDS011;65911;47.502;19.148;2023-08-08T06:51:40;1.85;;;0.50;;
76978;SDS011;65911;47.502;19.148;2023-08-08T06:54:42;1.52;;;0.50;;
76978;SDS011;65911;47.502;19.148;2023-08-08T06:57:45;1.80;;;0.50;;
76978;SDS011;65911;47.502;19.148;2023-08-08T07:00:48;1.13;;;0.52;;
76978;SDS011;65911;47.502;19.148;2023-08-08T07:03:50;2.13;;;0.73;;
76978;SDS011;65911;47.502;19.148;2023-08-08T07:06:52;1.60;;;0.75;;
76978;SDS011;65911;47.502;19.148;2023-08-08T07:09:54;0.90;;;0.40;;
76978;SDS011;65911;47.502;19.148;2023-08-08T07:12:57;2.28;;;0.77;;
76978;SDS011;65911;47.502;19.148;2023-08-08T07:15:59;3.70;;;1.20;;
76978;SDS011;65911;47.502;19.148;2023-08-08T07:19:02;1.90;;;0.60;;
76978;SDS011;65911;47.502;19.148;2023-08-08T07:22:04;3.08;;;0.90;;
76978;SDS011;65911;47.502;19.148;2023-08-08T07:25:07;3.30;;;0.80;;
76978;SDS011;65911;47.502;19.148;2023-08-08T07:28:09;1.67;;;0.80;;
76978;SDS011;65911;47.502;19.148;2023-08-08T07:31:12;1.10;;;0.60;;
76978;SDS011;65911;47.502;19.148;2023-08-08T07:34:14;2.45;;;0.65;;
76978;SDS011;65911;47.502;19.148;2023-08-08T07:37:16;2.05;;;0.57;;
76978;SDS011;65911;47.502;19.148;2023-08-08T07:40:20;1.73;;;0.70;;
76978;SDS011;65911;47.502;19.148;2023-08-08T07:43:23;2.25;;;0.77;;
76978;SDS011;65911;47.502;19.148;2023-08-08T07:46:25;1.98;;;0.73;;
76978;SDS011;65911;47.502;19.148;2023-08-08T07:49:27;3.13;;;0.77;;
76978;SDS011;65911;47.502;19.148;2023-08-08T07:52:30;2.10;;;0.70;;
76978;SDS011;65911;47.502;19.148;2023-08-08T07:55:32;1.85;;;0.90;;
76978;SDS011;65911;47.502;19.148;2023-08-08T07:58:34;1.50;;;0.70;;
76978;SDS011;65911;47.502;19.148;2023-08-08T08:01:38;1.98;;;0.50;;
76978;SDS011;65911;47.502;19.148;2023-08-08T08:04:40;2.78;;;0.80;;
76978;SDS011;65911;47.502;19.148;2023-08-08T08:07:42;1.83;;;0.80;;
76978;SDS011;65911;47.502;19.148;2023-08-08T08:10:45;2.70;;;0.80;;
76978;SDS011;65911;47.502;19.148;2023-08-08T08:13:47;1.60;;;1.30;;
76978;SDS011;65911;47.502;19.148;2023-08-08T08:16:49;2.58;;;1.35;;
76978;SDS011;65911;47.502;19.148;2023-08-08T08:19:52;2.53;;;1.30;;
76978;SDS011;65911;47.502;19.148;2023-08-08T08:22:54;4.22;;;1.92;;
76978;SDS011;65911;47.502;19.148;2023-08-08T08:25:56;6.97;;;2.08;;
76978;SDS011;65911;47.502;19.148;2023-08-08T08:28:59;4.73;;;2.47;;
76978;SDS011;65911;47.502;19.148;2023-08-08T08:32:01;3.22;;;2.13;;
76978;SDS011;65911;47.502;19.148;2023-08-08T08:35:04;3.95;;;2.28;;
76978;SDS011;65911;47.502;19.148;2023-08-08T08:38:09;4.75;;;1.73;;
76978;SDS011;65911;47.502;19.148;2023-08-08T08:41:12;2.97;;;2.00;;
76978;SDS011;65911;47.502;19.148;2023-08-08T08:44:17;3.10;;;1.58;;
76978;SDS011;65911;47.502;19.148;2023-08-08T08:47:20;5.57;;;1.70;;
76978;SDS011;65911;47.502;19.148;2023-08-08T08:50:23;2.60;;;1.57;;
76978;SDS011;65911;47.502;19.148;2023-08-08T08:53:29;4.18;;;1.50;;
76978;SDS011;65911;47.502;19.148;2023-08-08T08:56:31;4.78;;;1.02;;
76978;SDS011;65911;47.502;19.148;2023-08-08T08:59:34;3.10;;;1.37;;
76978;SDS011;65911;47.502;19.148;2023-08-08T09:02:37;2.70;;;0.90;;
76978;SDS011;65911;47.502;19.148;2023-08-08T09:05:39;1.92;;;0.60;;
76978;SDS011;65911;47.502;19.148;2023-08-08T09:08:43;4.60;;;1.20;;
76978;SDS011;65911;47.502;19.148;2023-08-08T09:11:50;1.42;;;0.80;;
76978;SDS011;65911;47.502;19.148;2023-08-08T09:14:56;2.10;;;1.02;;
76978;SDS011;65911;47.502;19.148;2023-08-08T09:17:59;2.55;;;0.90;;
76978;SDS011;65911;47.502;19.148;2023-08-08T09:21:02;2.43;;;1.10;;
76978;SDS011;65911;47.502;19.148;2023-08-08T09:24:04;1.73;;;1.00;;
76978;SDS011;65911;47.502;19.148;2023-08-08T09:27:07;2.40;;;0.80;;
76978;SDS011;65911;47.502;19.148;2023-08-08T09:30:09;2.20;;;1.00;;
76978;SDS011;65911;47.502;19.148;2023-08-08T09:33:13;4.80;;;0.88;;
76978;SDS011;65911;47.502;19.148;2023-08-08T09:36:15;4.30;;;1.02;;
76978;SDS011;65911;47.502;19.148;2023-08-08T09:39:28;2.65;;;0.90;;
76978;SDS011;65911;47.502;19.148;2023-08-08T09:42:30;1.70;;;0.90;;
76978;SDS011;65911;47.502;19.148;2023-08-08T09:45:37;2.17;;;1.00;;
76978;SDS011;65911;47.502;19.148;2023-08-08T09:48:40;2.15;;;1.00;;
76978;SDS011;65911;47.502;19.148;2023-08-08T09:51:42;1.80;;;0.60;;
76978;SDS011;65911;47.502;19.148;2023-08-08T09:54:45;2.08;;;0.88;;
76978;SDS011;65911;47.502;19.148;2023-08-08T09:57:48;2.50;;;0.98;;
76978;SDS011;65911;47.502;19.148;2023-08-08T10:00:51;3.50;;;1.00;;
76978;SDS011;65911;47.502;19.148;2023-08-08T10:03:53;3.67;;;0.90;;
76978;SDS011;65911;47.502;19.148;2023-08-08T10:06:55;3.05;;;1.40;;
76978;SDS011;65911;47.502;19.148;2023-08-08T10:09:57;3.72;;;0.90;;
76978;SDS011;65911;47.502;19.148;2023-08-08T10:13:00;1.92;;;1.05;;
76978;SDS011;65911;47.502;19.148;2023-08-08T10:16:09;2.70;;;0.80;;
76978;SDS011;65911;47.502;19.148;2023-08-08T10:19:11;1.98;;;0.98;;
76978;SDS011;65911;47.502;19.148;2023-08-08T10:22:13;1.53;;;0.93;;
76978;SDS011;65911;47.502;19.148;2023-08-08T10:25:26;3.17;;;0.85;;
76978;SDS011;65911;47.502;19.148;2023-08-08T10:28:29;1.55;;;0.73;;
76978;SDS011;65911;47.502;19.148;2023-08-08T10:31:34;1.43;;;0.87;;
76978;SDS011;65911;47.502;19.148;2023-08-08T10:37:40;3.95;;;0.95;;
76978;SDS011;65911;47.502;19.148;2023-08-08T10:40:58;2.42;;;0.85;;
76978;SDS011;65911;47.502;19.148;2023-08-08T10:44:01;2.05;;;1.10;;
76978;SDS011;65911;47.502;19.148;2023-08-08T10:47:03;0.95;;;0.80;;
76978;SDS011;65911;47.502;19.148;2023-08-08T10:50:08;3.28;;;0.75;;
76978;SDS011;65911;47.502;19.148;2023-08-08T10:53:14;1.73;;;0.87;;
76978;SDS011;65911;47.502;19.148;2023-08-08T10:56:17;1.50;;;0.90;;
76978;SDS011;65911;47.502;19.148;2023-08-08T10:59:26;1.58;;;0.77;;
76978;SDS011;65911;47.502;19.148;2023-08-08T11:02:29;2.00;;;0.80;;
76978;SDS011;65911;47.502;19.148;2023-08-08T11:05:34;2.88;;;0.82;;
76978;SDS011;65911;47.502;19.148;2023-08-08T11:08:40;1.73;;;0.80;;
76978;SDS011;65911;47.502;19.148;2023-08-08T11:11:43;2.00;;;0.75;;
76978;SDS011;65911;47.502;19.148;2023-08-08T11:14:46;2.50;;;0.75;;
76978;SDS011;65911;47.502;19.148;2023-08-08T11:17:48;1.60;;;0.55;;
76978;SDS011;65911;47.502;19.148;2023-08-08T11:20:51;3.03;;;0.70;;
76978;SDS011;65911;47.502;19.148;2023-08-08T11:24:03;2.77;;;0.90;;
76978;SDS011;65911;47.502;19.148;2023-08-08T11:27:06;1.25;;;1.02;;
76978;SDS011;65911;47.502;19.148;2023-08-08T11:30:09;1.80;;;0.68;;
76978;SDS011;65911;47.502;19.148;2023-08-08T11:33:14;1.73;;;0.83;;
76978;SDS011;65911;47.502;19.148;2023-08-08T11:36:18;3.95;;;0.77;;
76978;SDS011;65911;47.502;19.148;2023-08-08T11:39:21;2.55;;;1.02;;
76978;SDS011;65911;47.502;19.148;2023-08-08T11:42:23;2.67;;;0.73;;
76978;SDS011;65911;47.502;19.148;2023-08-08T11:45:25;1.95;;;0.98;;
76978;SDS011;65911;47.502;19.148;2023-08-08T11:48:27;1.85;;;1.02;;
76978;SDS011;65911;47.502;19.148;2023-08-08T11:51:29;6.95;;;1.02;;
76978;SDS011;65911;47.502;19.148;2023-08-08T11:54:32;3.90;;;0.83;;
76978;SDS011;65911;47.502;19.148;2023-08-08T11:57:38;5.07;;;1.20;;
76978;SDS011;65911;47.502;19.148;2023-08-08T12:00:42;2.03;;;0.80;;
76978;SDS011;65911;47.502;19.148;2023-08-08T12:03:45;1.50;;;0.93;;
76978;SDS011;65911;47.502;19.148;2023-08-08T12:06:47;2.78;;;1.02;;
76978;SDS011;65911;47.502;19.148;2023-08-08T12:09:52;5.68;;;1.08;;
76978;SDS011;65911;47.502;19.148;2023-08-08T12:12:55;4.95;;;1.00;;
76978;SDS011;65911;47.502;19.148;2023-08-08T12:16:00;2.95;;;0.70;;
76978;SDS011;65911;47.502;19.148;2023-08-08T12:19:03;1.75;;;0.85;;
76978;SDS011;65911;47.502;19.148;2023-08-08T12:22:08;5.43;;;1.23;;
76978;SDS011;65911;47.502;19.148;2023-08-08T12:25:11;2.03;;;0.67;;
76978;SDS011;65911;47.502;19.148;2023-08-08T12:28:13;1.38;;;0.77;;
76978;SDS011;65911;47.502;19.148;2023-08-08T12:31:15;1.45;;;1.10;;
76978;SDS011;65911;47.502;19.148;2023-08-08T12:34:17;2.40;;;0.93;;
76978;SDS011;65911;47.502;19.148;2023-08-08T12:37:20;1.63;;;0.70;;
76978;SDS011;65911;47.502;19.148;2023-08-08T12:40:22;2.42;;;0.90;;
76978;SDS011;65911;47.502;19.148;2023-08-08T12:43:24;3.47;;;0.77;;
76978;SDS011;65911;47.502;19.148;2023-08-08T12:46:26;1.60;;;0.90;;
76978;SDS011;65911;47.502;19.148;2023-08-08T12:49:29;2.28;;;0.75;;
76978;SDS011;65911;47.502;19.148;2023-08-08T12:52:31;1.60;;;0.98;;
76978;SDS011;65911;47.502;19.148;2023-08-08T12:55:33;1.60;;;0.83;;
76978;SDS011;65911;47.502;19.148;2023-08-08T12:58:36;2.13;;;0.70;;
76978;SDS011;65911;47.502;19.148;2023-08-08T13:01:38;1.35;;;0.70;;
76978;SDS011;65911;47.502;19.148;2023-08-08T13:04:40;1.30;;;0.63;;
76978;SDS011;65911;47.502;19.148;2023-08-08T13:07:42;1.88;;;0.60;;
76978;SDS011;65911;47.502;19.148;2023-08-08T13:10:45;3.20;;;0.93;;
76978;SDS011;65911;47.502;19.148;2023-08-08T13:13:47;1.77;;;0.88;;
76978;SDS011;65911;47.502;19.148;2023-08-08T13:16:49;1.30;;;0.77;;
76978;SDS011;65911;47.502;19.148;2023-08-08T13:19:52;1.63;;;0.88;;
76978;SDS011;65911;47.502;19.148;2023-08-08T13:22:54;1.90;;;0.60;;
76978;SDS011;65911;47.502;19.148;2023-08-08T13:25:56;2.80;;;0.83;;
76978;SDS011;65911;47.502;19.148;2023-08-08T13:28:58;2.25;;;1.05;;
76978;SDS011;65911;47.502;19.148;2023-08-08T13:32:00;1.70;;;0.80;;
76978;SDS011;65911;47.502;19.148;2023-08-08T13:35:03;1.60;;;0.83;;
76978;SDS011;65911;47.502;19.148;2023-08-08T13:38:06;2.03;;;0.80;;
76978;SDS011;65911;47.502;19.148;2023-08-08T13:41:10;1.88;;;0.70;;
76978;SDS011;65911;47.502;19.148;2023-08-08T13:44:12;2.25;;;0.80;;
76978;SDS011;65911;47.502;19.148;2023-08-08T13:47:14;1.15;;;0.90;;
76978;SDS011;65911;47.502;19.148;2023-08-08T13:50:16;1.27;;;0.63;;
76978;SDS011;65911;47.502;19.148;2023-08-08T13:53:19;1.83;;;1.10;;
76978;SDS011;65911;47.502;19.148;2023-08-08T13:56:21;1.93;;;0.70;;
76978;SDS011;65911;47.502;19.148;2023-08-08T13:59:24;1.90;;;0.70;;
76978;SDS011;65911;47.502;19.148;2023-08-08T14:02:26;1.23;;;0.57;;
76978;SDS011;65911;47.502;19.148;2023-08-08T14:05:29;2.67;;;0.57;;
76978;SDS011;65911;47.502;19.148;2023-08-08T14:08:32;0.80;;;0.80;;
76978;SDS011;65911;47.502;19.148;2023-08-08T14:11:34;1.60;;;0.68;;
76978;SDS011;65911;47.502;19.148;2023-08-08T14:14:36;1.20;;;0.40;;
76978;SDS011;65911;47.502;19.148;2023-08-08T14:17:39;1.67;;;0.75;;
76978;SDS011;65911;47.502;19.148;2023-08-08T14:20:41;2.42;;;1.00;;
76978;SDS011;65911;47.502;19.148;2023-08-08T14:23:43;1.08;;;0.60;;
76978;SDS011;65911;47.502;19.148;2023-08-08T14:26:46;1.10;;;0.50;;
76978;SDS011;65911;47.502;19.148;2023-08-08T14:29:49;1.98;;;0.77;;
76978;SDS011;65911;47.502;19.148;2023-08-08T14:32:51;1.48;;;0.93;;
76978;SDS011;65911;47.502;19.148;2023-08-08T14:35:53;3.63;;;0.70;;
76978;SDS011;65911;47.502;19.148;2023-08-08T14:38:56;1.05;;;0.47;;
76978;SDS011;65911;47.502;19.148;2023-08-08T14:41:58;1.17;;;0.60;;
76978;SDS011;65911;47.502;19.148;2023-08-08T14:45:01;1.92;;;0.70;;
76978;SDS011;65911;47.502;19.148;2023-08-08T14:48:04;2.78;;;0.90;;
76978;SDS011;65911;47.502;19.148;2023-08-08T14:51:06;1.88;;;0.90;;
76978;SDS011;65911;47.502;19.148;2023-08-08T14:54:09;1.52;;;1.00;;
76978;SDS011;65911;47.502;19.148;2023-08-08T14:57:11;3.80;;;0.67;;
76978;SDS011;65911;47.502;19.148;2023-08-08T15:00:14;1.67;;;0.80;;
76978;SDS011;65911;47.502;19.148;2023-08-08T15:03:16;1.33;;;0.60;;
76978;SDS011;65911;47.502;19.148;2023-08-08T15:06:20;1.30;;;0.70;;
76978;SDS011;65911;47.502;19.148;2023-08-08T15:09:23;1.30;;;0.52;;
76978;SDS011;65911;47.502;19.148;2023-08-08T15:12:25;1.50;;;0.70;;
76978;SDS011;65911;47.502;19.148;2023-08-08T15:15:27;1.80;;;0.70;;
76978;SDS011;65911;47.502;19.148;2023-08-08T15:18:31;0.73;;;0.47;;
76978;SDS011;65911;47.502;19.148;2023-08-08T15:21:34;0.93;;;0.70;;
76978;SDS011;65911;47.502;19.148;2023-08-08T15:24:36;4.05;;;0.80;;
76978;SDS011;65911;47.502;19.148;2023-08-08T15:27:38;1.83;;;0.67;;
76978;SDS011;65911;47.502;19.148;2023-08-08T15:30:40;1.67;;;0.65;;
76978;SDS011;65911;47.502;19.148;2023-08-08T15:33:43;1.33;;;0.52;;
76978;SDS011;65911;47.502;19.148;2023-08-08T15:36:45;1.23;;;0.83;;
76978;SDS011;65911;47.502;19.148;2023-08-08T15:39:47;2.35;;;0.70;;
76978;SDS011;65911;47.502;19.148;2023-08-08T15:42:49;1.10;;;0.65;;
76978;SDS011;65911;47.502;19.148;2023-08-08T15:45:52;1.17;;;0.55;;
76978;SDS011;65911;47.502;19.148;2023-08-08T15:48:55;1.40;;;0.65;;
76978;SDS011;65911;47.502;19.148;2023-08-08T15:51:57;2.05;;;0.98;;
76978;SDS011;65911;47.502;19.148;2023-08-08T15:55:00;2.25;;;0.70;;
76978;SDS011;65911;47.502;19.148;2023-08-08T15:58:02;1.43;;;0.43;;
76978;SDS011;65911;47.502;19.148;2023-08-08T16:01:05;2.03;;;0.82;;
76978;SDS011;65911;47.502;19.148;2023-08-08T16:04:07;1.00;;;0.77;;
76978;SDS011;65911;47.502;19.148;2023-08-08T16:07:14;1.20;;;0.80;;
76978;SDS011;65911;47.502;19.148;2023-08-08T16:10:19;1.15;;;0.45;;
76978;SDS011;65911;47.502;19.148;2023-08-08T16:13:22;1.50;;;0.88;;
76978;SDS011;65911;47.502;19.148;2023-08-08T16:16:24;1.80;;;0.95;;
76978;SDS011;65911;47.502;19.148;2023-08-08T16:19:26;1.63;;;0.68;;
76978;SDS011;65911;47.502;19.148;2023-08-08T16:22:28;2.13;;;0.40;;
76978;SDS011;65911;47.502;19.148;2023-08-08T16:25:30;1.30;;;0.60;;
76978;SDS011;65911;47.502;19.148;2023-08-08T16:28:33;1.40;;;0.70;;
76978;SDS011;65911;47.502;19.148;2023-08-08T16:31:38;1.50;;;0.80;;
76978;SDS011;65911;47.502;19.148;2023-08-08T16:34:40;3.40;;;1.08;;
76978;SDS011;65911;47.502;19.148;2023-08-08T16:37:42;1.13;;;0.70;;
76978;SDS011;65911;47.502;19.148;2023-08-08T16:40:45;2.42;;;0.70;;
76978;SDS011;65911;47.502;19.148;2023-08-08T16:43:50;1.20;;;0.70;;
76978;SDS011;65911;47.502;19.148;2023-08-08T16:46:56;2.38;;;0.90;;
76978;SDS011;65911;47.502;19.148;2023-08-08T16:49:58;1.02;;;0.70;;
76978;SDS011;65911;47.502;19.148;2023-08-08T16:53:00;2.13;;;0.90;;
76978;SDS011;65911;47.502;19.148;2023-08-08T16:56:03;1.85;;;1.10;;
76978;SDS011;65911;47.502;19.148;2023-08-08T16:59:08;1.60;;;1.10;;
76978;SDS011;65911;47.502;19.148;2023-08-08T17:02:11;3.33;;;1.17;;
76978;SDS011;65911;47.502;19.148;2023-08-08T17:05:13;2.95;;;0.88;;
76978;SDS011;65911;47.502;19.148;2023-08-08T17:08:15;2.13;;;1.07;;
76978;SDS011;65911;47.502;19.148;2023-08-08T17:11:17;2.33;;;1.10;;
76978;SDS011;65911;47.502;19.148;2023-08-08T17:14:20;2.50;;;0.77;;
76978;SDS011;65911;47.502;19.148;2023-08-08T17:17:23;3.72;;;1.00;;
76978;SDS011;65911;47.502;19.148;2023-08-08T17:20:28;4.30;;;1.08;;
76978;SDS011;65911;47.502;19.148;2023-08-08T17:23:30;2.17;;;0.88;;
76978;SDS011;65911;47.502;19.148;2023-08-08T17:26:32;2.72;;;1.13;;
76978;SDS011;65911;47.502;19.148;2023-08-08T17:29:34;2.83;;;0.93;;
76978;SDS011;65911;47.502;19.148;2023-08-08T17:32:36;1.67;;;1.17;;
76978;SDS011;65911;47.502;19.148;2023-08-08T17:35:39;2.05;;;0.90;;
76978;SDS011;65911;47.502;19.148;2023-08-08T17:38:41;1.60;;;1.00;;
76978;SDS011;65911;47.502;19.148;2023-08-08T17:41:43;1.80;;;1.17;;
76978;SDS011;65911;47.502;19.148;2023-08-08T17:44:45;2.28;;;0.90;;
76978;SDS011;65911;47.502;19.148;2023-08-08T17:47:48;2.00;;;1.10;;
76978;SDS011;65911;47.502;19.148;2023-08-08T17:50:53;2.45;;;1.10;;
76978;SDS011;65911;47.502;19.148;2023-08-08T17:53:56;5.25;;;1.13;;
76978;SDS011;65911;47.502;19.148;2023-08-08T17:56:58;2.33;;;1.17;;
76978;SDS011;65911;47.502;19.148;2023-08-08T18:00:00;4.33;;;1.43;;
76978;SDS011;65911;47.502;19.148;2023-08-08T18:03:09;3.90;;;1.50;;
76978;SDS011;65911;47.502;19.148;2023-08-08T18:06:11;5.05;;;1.65;;
76978;SDS011;65911;47.502;19.148;2023-08-08T18:09:14;4.87;;;1.93;;
76978;SDS011;65911;47.502;19.148;2023-08-08T18:12:16;3.95;;;2.10;;